createdAt,value
2017-12-13T00:02:22.422Z,8.53
2017-12-13T00:04:51.529Z,9.13
2017-12-13T00:07:19.662Z,10.10
2017-12-13T00:09:47.802Z,9.10
2017-12-13T00:12:15.954Z,11.87
2017-12-13T00:14:44.093Z,11.73
2017-12-13T00:17:13.017Z,10.93
2017-12-13T00:19:41.162Z,11.33
2017-12-13T00:22:09.304Z,9.70
2017-12-13T00:24:37.438Z,10.60
2017-12-13T00:27:05.594Z,10.43
2017-12-13T00:29:33.734Z,9.80
2017-12-13T00:32:03.401Z,10.53
2017-12-13T00:34:31.537Z,9.53
2017-12-13T00:37:00.453Z,9.37
2017-12-13T00:39:28.597Z,10.90
2017-12-13T00:41:56.756Z,10.40
2017-12-13T00:44:31.664Z,10.20
2017-12-13T00:47:00.580Z,8.50
2017-12-13T00:49:28.741Z,9.30
2017-12-13T00:51:57.648Z,9.70
2017-12-13T00:54:26.564Z,8.60
2017-12-13T00:56:54.693Z,7.97
2017-12-13T00:59:24.268Z,8.17
2017-12-13T01:01:53.162Z,7.13
2017-12-13T01:04:22.101Z,7.23
2017-12-13T01:06:50.977Z,7.80
2017-12-13T01:09:20.705Z,6.97
2017-12-13T01:11:48.829Z,7.33
2017-12-13T01:14:16.974Z,6.60
2017-12-13T01:16:45.953Z,6.90
2017-12-13T01:19:14.097Z,6.90
2017-12-13T01:21:43.152Z,7.47
2017-12-13T01:24:11.299Z,6.73
2017-12-13T01:26:39.449Z,7.07
2017-12-13T01:29:09.356Z,7.20
2017-12-13T01:31:38.206Z,6.97
2017-12-13T01:34:06.360Z,7.57
2017-12-13T01:36:36.102Z,7.43
2017-12-13T01:39:04.255Z,7.50
2017-12-13T01:41:33.141Z,7.00
2017-12-13T01:44:01.302Z,7.17
2017-12-13T01:46:29.454Z,7.07
2017-12-13T01:48:57.577Z,5.70
2017-12-13T01:51:26.496Z,6.70
2017-12-13T01:53:55.813Z,5.90
2017-12-13T01:56:24.520Z,6.07
2017-12-13T01:58:53.389Z,5.60
2017-12-13T02:01:21.543Z,6.10
2017-12-13T02:03:49.668Z,5.70
2017-12-13T02:06:18.804Z,5.50
2017-12-13T02:08:46.944Z,5.43
2017-12-13T02:11:15.089Z,5.83
2017-12-13T02:13:44.933Z,5.77
2017-12-13T02:16:13.939Z,5.73
2017-12-13T02:18:42.833Z,5.67
2017-12-13T02:21:11.744Z,5.67
2017-12-13T02:23:40.640Z,6.07
2017-12-13T02:26:09.543Z,5.93
2017-12-13T02:28:38.441Z,5.60
2017-12-13T02:31:07.352Z,5.50
2017-12-13T02:33:36.245Z,5.43
2017-12-13T02:36:05.177Z,4.90
2017-12-13T02:38:34.138Z,5.43
2017-12-13T02:41:05.586Z,5.80
2017-12-13T02:43:33.726Z,5.47
2017-12-13T02:46:01.873Z,4.67
2017-12-13T02:48:30.032Z,4.90
2017-12-13T02:50:58.140Z,4.63
2017-12-13T02:53:26.312Z,5.50
2017-12-13T02:55:54.424Z,5.40
2017-12-13T02:58:22.561Z,6.00
2017-12-13T03:00:50.719Z,4.93
2017-12-13T03:03:19.604Z,5.20
2017-12-13T03:05:47.740Z,4.50
2017-12-13T03:08:15.891Z,5.33
2017-12-13T03:10:44.786Z,5.67
2017-12-13T03:13:13.685Z,5.57
2017-12-13T03:15:42.609Z,5.47
2017-12-13T03:18:11.518Z,5.80
2017-12-13T03:20:39.645Z,5.53
2017-12-13T03:23:07.789Z,5.83
2017-12-13T03:25:35.915Z,6.43
2017-12-13T03:28:04.076Z,5.97
2017-12-13T03:30:33.374Z,6.30
2017-12-13T03:33:01.517Z,5.20
2017-12-13T03:35:29.659Z,5.07
2017-12-13T03:37:57.786Z,6.40
2017-12-13T03:40:26.806Z,7.03
2017-12-13T03:42:55.537Z,5.43
2017-12-13T03:45:24.421Z,5.97
2017-12-13T03:47:53.317Z,6.80
2017-12-13T03:50:22.919Z,5.70
2017-12-13T03:52:51.687Z,5.57
2017-12-13T03:55:20.677Z,6.40
2017-12-13T03:57:49.705Z,6.53
2017-12-13T04:00:17.861Z,5.70
2017-12-13T04:02:46.000Z,5.73
2017-12-13T04:05:14.149Z,6.10
2017-12-13T04:07:43.990Z,5.60
2017-12-13T04:10:12.928Z,6.43
2017-12-13T04:12:41.060Z,5.50
2017-12-13T04:15:09.208Z,5.43
2017-12-13T04:17:37.336Z,4.87
2017-12-13T04:20:06.835Z,4.57
2017-12-13T04:22:34.965Z,4.57
2017-12-13T04:25:04.411Z,3.93
2017-12-13T04:27:32.548Z,5.50
2017-12-13T04:30:00.689Z,4.40
2017-12-13T04:32:29.601Z,4.90
2017-12-13T04:34:58.504Z,4.40
2017-12-13T04:37:27.416Z,4.27
2017-12-13T04:39:55.542Z,4.50
2017-12-13T04:42:23.700Z,4.50
2017-12-13T04:44:51.818Z,3.47
2017-12-13T04:47:19.978Z,4.10
2017-12-13T04:49:48.825Z,4.20
2017-12-13T04:52:16.962Z,3.77
2017-12-13T04:54:45.090Z,4.80
2017-12-13T04:57:13.277Z,5.80
2017-12-13T04:59:42.757Z,3.93
2017-12-13T05:02:11.801Z,4.20
2017-12-13T05:04:39.950Z,4.17
2017-12-13T05:07:08.095Z,3.97
2017-12-13T05:09:36.229Z,3.53
2017-12-13T05:12:04.623Z,3.40
2017-12-13T05:14:32.758Z,3.00
2017-12-13T05:17:02.520Z,3.67
2017-12-13T05:19:30.644Z,3.27
2017-12-13T05:21:58.796Z,3.60
2017-12-13T05:24:27.709Z,3.00
2017-12-13T05:26:55.849Z,3.67
2017-12-13T05:29:26.010Z,4.13
2017-12-13T05:31:54.881Z,3.23
2017-12-13T05:34:23.798Z,3.90
2017-12-13T05:36:52.700Z,4.77
2017-12-13T05:39:21.637Z,3.80
2017-12-13T05:41:49.764Z,3.50
2017-12-13T05:44:17.941Z,4.00
2017-12-13T05:46:46.058Z,3.40
2017-12-13T05:49:14.991Z,3.70
2017-12-13T05:51:43.103Z,3.60
2017-12-13T05:54:11.236Z,3.73
2017-12-13T05:56:40.154Z,3.80
2017-12-13T05:59:08.283Z,4.07
2017-12-13T06:01:37.004Z,4.00
2017-12-13T06:04:06.309Z,3.90
2017-12-13T06:06:34.473Z,4.10
2017-12-13T06:09:03.201Z,3.67
2017-12-13T06:11:31.337Z,3.30
2017-12-13T06:13:59.466Z,3.77
2017-12-13T06:16:27.608Z,3.50
2017-12-13T06:18:55.791Z,4.47
2017-12-13T06:21:23.929Z,4.53
2017-12-13T06:23:52.072Z,4.00
2017-12-13T06:26:21.045Z,3.77
2017-12-13T06:28:49.196Z,4.30
2017-12-13T06:31:18.472Z,4.40
2017-12-13T06:33:46.609Z,4.57
2017-12-13T06:36:16.900Z,4.00
2017-12-13T06:38:45.037Z,5.47
2017-12-13T06:41:13.929Z,4.90
2017-12-13T06:43:42.096Z,4.60
2017-12-13T06:46:10.228Z,4.40
2017-12-13T06:48:39.156Z,4.50
2017-12-13T06:51:07.273Z,4.50
2017-12-13T06:53:36.290Z,3.47
2017-12-13T06:56:05.037Z,4.60
2017-12-13T06:58:34.403Z,3.70
2017-12-13T07:01:02.562Z,3.90
2017-12-13T07:03:30.670Z,4.13
2017-12-13T07:05:58.908Z,4.40
2017-12-13T07:08:27.805Z,5.20
2017-12-13T07:10:57.635Z,4.80
2017-12-13T07:13:25.757Z,5.43
2017-12-13T07:15:53.897Z,4.77
2017-12-13T07:18:22.801Z,5.17
2017-12-13T07:20:51.704Z,4.50
2017-12-13T07:23:20.653Z,5.40
2017-12-13T07:25:49.668Z,4.50
2017-12-13T07:28:17.833Z,4.07
2017-12-13T07:30:45.989Z,4.80
2017-12-13T07:33:14.133Z,5.80
2017-12-13T07:35:42.281Z,4.80
2017-12-13T07:38:10.443Z,15.27
2017-12-13T07:40:39.350Z,19.97
2017-12-13T07:43:08.261Z,17.70
2017-12-13T07:45:36.405Z,8.70
2017-12-13T07:48:06.917Z,10.10
2017-12-13T07:50:35.052Z,12.70
2017-12-13T07:53:03.986Z,7.60
2017-12-13T07:55:32.154Z,5.97
2017-12-13T07:58:01.072Z,15.47
2017-12-13T08:00:30.551Z,10.80
2017-12-13T08:02:59.950Z,10.50
2017-12-13T08:05:28.074Z,8.50
2017-12-13T08:07:56.988Z,7.40
2017-12-13T08:10:25.890Z,6.80
2017-12-13T08:12:54.801Z,8.30
2017-12-13T08:15:23.414Z,10.40
2017-12-13T08:17:51.578Z,6.70
2017-12-13T08:20:21.641Z,8.60
2017-12-13T08:22:50.713Z,7.40
2017-12-13T08:25:20.198Z,5.90
2017-12-13T08:27:48.325Z,7.27
2017-12-13T08:30:16.468Z,7.90
2017-12-13T08:32:46.748Z,6.10
2017-12-13T08:35:15.644Z,7.60
2017-12-13T08:37:45.301Z,11.40
2017-12-13T08:40:13.487Z,8.50
2017-12-13T08:42:42.197Z,8.63
2017-12-13T08:45:10.912Z,11.67
2017-12-13T08:47:39.079Z,9.80
2017-12-13T08:50:07.993Z,11.00
2017-12-13T08:52:36.108Z,8.70
2017-12-13T08:55:05.032Z,7.73
2017-12-13T08:57:33.552Z,8.10
2017-12-13T09:00:01.670Z,8.13
2017-12-13T09:02:31.132Z,5.77
2017-12-13T09:05:00.115Z,8.20
2017-12-13T09:07:28.285Z,10.10
2017-12-13T09:09:56.452Z,10.03
2017-12-13T09:12:27.343Z,10.10
2017-12-13T09:14:57.174Z,9.30
2017-12-13T09:17:26.102Z,9.27
2017-12-13T09:19:54.308Z,9.83
2017-12-13T09:22:22.457Z,14.83
2017-12-13T09:24:51.356Z,11.90
2017-12-13T09:27:20.283Z,10.10
2017-12-13T09:29:48.407Z,9.50
2017-12-13T09:32:16.568Z,13.67
2017-12-13T09:34:44.724Z,26.33
2017-12-13T09:37:12.880Z,18.90
2017-12-13T09:39:41.023Z,14.60
2017-12-13T09:42:09.162Z,15.77
2017-12-13T09:44:38.073Z,13.17
2017-12-13T09:47:07.213Z,4.30
2017-12-13T09:49:35.347Z,6.47
2017-12-13T09:52:03.524Z,5.63
2017-12-13T09:54:31.649Z,4.50
2017-12-13T09:56:59.796Z,5.60
2017-12-13T09:59:28.609Z,4.27
2017-12-13T10:01:56.739Z,3.40
2017-12-13T10:04:25.893Z,4.30
2017-12-13T10:06:55.411Z,4.83
2017-12-13T10:09:23.554Z,4.93
2017-12-13T10:11:52.281Z,4.50
2017-12-13T10:14:20.445Z,4.37
2017-12-13T10:16:48.580Z,3.60
2017-12-13T10:19:16.741Z,3.20
2017-12-13T10:21:44.856Z,4.17
2017-12-13T10:24:13.002Z,4.40
2017-12-13T10:26:41.155Z,5.17
2017-12-13T10:29:09.303Z,2.83
2017-12-13T10:31:37.886Z,4.10
2017-12-13T10:34:06.029Z,3.17
2017-12-13T10:36:35.007Z,2.93
2017-12-13T10:39:03.133Z,2.50
2017-12-13T10:41:32.979Z,2.33
2017-12-13T10:44:01.991Z,1.80
2017-12-13T10:46:30.157Z,2.30
2017-12-13T10:48:58.270Z,2.40
2017-12-13T10:51:27.478Z,2.73
2017-12-13T10:53:55.597Z,1.70
2017-12-13T10:56:23.736Z,1.90
2017-12-13T10:58:52.299Z,1.97
2017-12-13T11:01:21.164Z,1.70
2017-12-13T11:03:49.309Z,1.70
2017-12-13T11:06:18.112Z,1.90
2017-12-13T11:08:46.266Z,1.70
2017-12-13T11:11:15.970Z,1.90
2017-12-13T11:13:51.237Z,1.70
2017-12-13T11:16:20.797Z,1.70
2017-12-13T11:18:48.942Z,1.70
2017-12-13T11:21:18.799Z,1.83
2017-12-13T11:23:47.721Z,1.90
2017-12-13T11:26:16.610Z,2.00
2017-12-13T11:28:45.710Z,2.10
2017-12-13T11:31:13.862Z,1.93
2017-12-13T11:33:42.008Z,2.10
2017-12-13T11:36:10.133Z,1.80
2017-12-13T11:38:39.048Z,1.70
2017-12-13T11:41:07.970Z,1.87
2017-12-13T11:43:36.203Z,1.53
2017-12-13T11:46:05.791Z,2.13
2017-12-13T11:48:33.909Z,2.00
2017-12-13T11:51:02.081Z,2.57
2017-12-13T11:53:30.196Z,1.80
2017-12-13T11:55:58.334Z,2.20
2017-12-13T11:58:26.463Z,2.77
2017-12-13T12:00:54.616Z,1.90
2017-12-13T12:03:22.772Z,1.80
2017-12-13T12:05:52.246Z,1.70
2017-12-13T12:08:21.363Z,1.80
2017-12-13T12:10:49.513Z,1.70
2017-12-13T12:13:17.640Z,1.80
2017-12-13T12:15:46.536Z,1.77
2017-12-13T12:18:14.684Z,2.17
2017-12-13T12:20:42.819Z,1.90
2017-12-13T12:23:12.337Z,1.77
2017-12-13T12:25:40.486Z,2.03
2017-12-13T12:28:08.640Z,1.40
2017-12-13T12:30:36.764Z,1.50
2017-12-13T12:33:04.929Z,1.53
2017-12-13T12:35:33.475Z,1.70
2017-12-13T12:38:01.676Z,1.60
2017-12-13T12:40:29.820Z,1.67
2017-12-13T12:42:57.954Z,1.60
2017-12-13T12:45:26.097Z,1.53
2017-12-13T12:47:54.242Z,1.50
2017-12-13T12:50:22.390Z,1.70
2017-12-13T12:52:51.361Z,2.27
2017-12-13T12:55:19.485Z,1.40
2017-12-13T12:57:49.285Z,2.00
2017-12-13T13:00:17.417Z,2.17
2017-12-13T13:02:45.570Z,1.93
2017-12-13T13:05:13.743Z,2.60
2017-12-13T13:07:41.886Z,2.30
2017-12-13T13:10:10.060Z,3.00
2017-12-13T13:12:38.213Z,2.30
2017-12-13T13:15:06.361Z,2.67
2017-12-13T13:17:34.494Z,2.20
2017-12-13T13:20:02.649Z,1.47
2017-12-13T13:22:30.798Z,1.70
2017-12-13T13:24:58.944Z,1.70
2017-12-13T13:27:27.082Z,2.47
2017-12-13T13:29:55.242Z,1.93
2017-12-13T13:32:24.161Z,2.37
2017-12-13T13:34:52.323Z,2.37
2017-12-13T13:37:21.231Z,2.90
2017-12-13T13:39:50.185Z,2.03
2017-12-13T13:42:18.321Z,2.10
2017-12-13T13:44:46.437Z,2.00
2017-12-13T13:47:14.604Z,1.97
2017-12-13T13:49:43.517Z,1.43
2017-12-13T13:52:11.669Z,2.10
2017-12-13T13:54:39.812Z,1.60
2017-12-13T13:57:07.974Z,1.57
2017-12-13T13:59:36.848Z,1.90
2017-12-13T14:02:05.767Z,1.50
2017-12-13T14:04:34.654Z,1.53
2017-12-13T14:07:02.868Z,1.47
2017-12-13T14:09:32.309Z,1.40
2017-12-13T14:12:00.492Z,1.53
2017-12-13T14:14:28.618Z,1.60
2017-12-13T14:16:56.758Z,1.37
2017-12-13T14:19:26.222Z,1.83
2017-12-13T14:21:54.361Z,1.70
2017-12-13T14:24:22.499Z,1.40
2017-12-13T14:26:50.653Z,1.87
2017-12-13T14:29:18.797Z,2.07
2017-12-13T14:31:47.697Z,2.30
2017-12-13T14:34:16.878Z,2.00
2017-12-13T14:36:45.035Z,1.87
2017-12-13T14:39:13.195Z,1.70
2017-12-13T14:41:41.327Z,2.00
2017-12-13T14:44:09.474Z,4.10
2017-12-13T14:46:37.598Z,2.90
2017-12-13T14:49:05.749Z,1.90
2017-12-13T14:51:33.881Z,1.77
2017-12-13T14:54:02.041Z,2.03
2017-12-13T14:56:30.175Z,2.70
2017-12-13T14:58:59.094Z,2.30
2017-12-13T15:01:27.248Z,2.00
2017-12-13T15:03:55.391Z,2.03
2017-12-13T15:06:23.509Z,1.80
2017-12-13T15:08:51.652Z,1.80
2017-12-13T15:11:19.780Z,2.20
2017-12-13T15:13:48.859Z,2.83
2017-12-13T15:16:17.046Z,2.50
2017-12-13T15:18:45.170Z,2.20
2017-12-13T15:21:13.329Z,2.57
2017-12-13T15:23:41.482Z,2.30
2017-12-13T15:26:09.637Z,2.43
2017-12-13T15:28:38.533Z,2.00
2017-12-13T15:31:07.404Z,1.87
2017-12-13T15:33:35.537Z,3.43
2017-12-13T15:36:04.455Z,2.20
2017-12-13T15:38:32.643Z,1.80
2017-12-13T15:41:00.802Z,2.40
2017-12-13T15:43:28.921Z,2.40
2017-12-13T15:45:57.052Z,2.20
2017-12-13T15:48:25.935Z,1.90
2017-12-13T15:50:54.061Z,1.90
2017-12-13T15:53:23.541Z,2.57
2017-12-13T15:55:52.420Z,2.77
2017-12-13T15:58:20.577Z,2.10
2017-12-13T16:00:49.486Z,2.17
2017-12-13T16:03:18.378Z,3.57
2017-12-13T16:05:47.288Z,1.83
2017-12-13T16:08:16.235Z,2.30
2017-12-13T16:10:44.376Z,2.63
2017-12-13T16:13:12.526Z,2.43
2017-12-13T16:15:42.371Z,2.37
2017-12-13T16:18:10.517Z,2.27
2017-12-13T16:20:38.674Z,3.20
2017-12-13T16:23:06.800Z,5.30
2017-12-13T16:25:34.956Z,4.50
2017-12-13T16:28:03.111Z,5.63
2017-12-13T16:30:31.283Z,5.90
2017-12-13T16:32:59.412Z,4.70
2017-12-13T16:35:27.590Z,3.10
2017-12-13T16:37:56.469Z,4.67
2017-12-13T16:40:25.392Z,3.43
2017-12-13T16:42:54.368Z,6.30
2017-12-13T16:45:22.493Z,6.37
2017-12-13T16:47:50.661Z,9.30
2017-12-13T16:50:19.581Z,7.83
2017-12-13T16:52:49.251Z,3.03
2017-12-13T16:55:17.377Z,2.00
2017-12-13T16:57:46.286Z,1.80
2017-12-13T17:00:15.176Z,2.53
2017-12-13T17:02:44.154Z,2.83
2017-12-13T17:05:12.251Z,1.70
2017-12-13T17:07:41.151Z,2.20
2017-12-13T17:10:09.292Z,2.30
2017-12-13T17:12:38.218Z,3.90
2017-12-13T17:15:06.360Z,4.20
2017-12-13T17:17:35.290Z,3.20
2017-12-13T17:20:03.424Z,2.80
2017-12-13T17:22:31.593Z,3.20
2017-12-13T17:25:00.481Z,2.50
2017-12-13T17:27:28.624Z,2.70
2017-12-13T17:29:57.518Z,2.20
2017-12-13T17:32:26.461Z,3.13
2017-12-13T17:34:54.608Z,2.07
2017-12-13T17:37:23.510Z,2.67
2017-12-13T17:39:52.411Z,2.43
2017-12-13T17:42:20.563Z,2.10
2017-12-13T17:44:48.704Z,2.23
2017-12-13T17:47:17.634Z,2.03
2017-12-13T17:49:45.763Z,2.27
2017-12-13T17:52:13.909Z,2.37
2017-12-13T17:54:42.061Z,2.63
2017-12-13T17:57:10.993Z,2.63
2017-12-13T17:59:39.129Z,2.20
2017-12-13T18:02:07.246Z,3.00
2017-12-13T18:04:36.249Z,2.47
2017-12-13T18:07:05.178Z,3.10
2017-12-13T18:09:33.825Z,5.20
2017-12-13T18:12:01.980Z,4.00
2017-12-13T18:14:30.138Z,4.00
2017-12-13T18:16:59.031Z,2.70
2017-12-13T18:19:27.194Z,2.80
2017-12-13T18:21:56.896Z,1.80
2017-12-13T18:24:25.065Z,1.80
2017-12-13T18:26:53.207Z,1.80
2017-12-13T18:29:21.351Z,1.93
2017-12-13T18:31:49.524Z,2.60
2017-12-13T18:34:17.666Z,2.90
2017-12-13T18:36:45.879Z,3.33
2017-12-13T18:39:14.032Z,2.23
2017-12-13T18:41:42.224Z,2.37
2017-12-13T18:44:11.143Z,1.63
2017-12-13T18:46:39.306Z,1.60
2017-12-13T18:49:08.202Z,2.60
2017-12-13T18:51:36.363Z,1.97
2017-12-13T18:54:04.512Z,1.87
2017-12-13T18:56:32.660Z,2.03
2017-12-13T18:59:00.811Z,1.73
2017-12-13T19:01:28.970Z,1.47
2017-12-13T19:03:57.121Z,1.20
2017-12-13T19:06:26.963Z,2.87
2017-12-13T19:08:55.858Z,2.90
2017-12-13T19:11:24.799Z,2.00
2017-12-13T19:13:52.971Z,1.90
2017-12-13T19:16:21.102Z,1.80
2017-12-13T19:18:50.030Z,2.27
2017-12-13T19:21:18.945Z,1.50
2017-12-13T19:23:47.107Z,1.60
2017-12-13T19:26:15.279Z,2.10
2017-12-13T19:28:43.434Z,2.27
2017-12-13T19:31:11.579Z,3.87
2017-12-13T19:33:40.515Z,4.93
2017-12-13T19:36:08.647Z,2.87
2017-12-13T19:38:36.782Z,1.90
2017-12-13T19:41:05.516Z,1.80
2017-12-13T19:43:33.711Z,1.60
2017-12-13T19:46:01.880Z,1.70
2017-12-13T19:48:30.798Z,2.80
2017-12-13T19:50:59.909Z,2.00
2017-12-13T19:53:28.036Z,2.40
2017-12-13T19:55:56.999Z,1.97
2017-12-13T19:58:25.181Z,2.20
2017-12-13T20:00:53.354Z,1.70
2017-12-13T20:03:21.492Z,1.70
2017-12-13T20:05:49.711Z,1.73
2017-12-13T20:08:17.850Z,1.80
2017-12-13T20:10:46.538Z,1.60
2017-12-13T20:13:14.782Z,1.87
2017-12-13T20:15:42.947Z,1.50
2017-12-13T20:18:11.841Z,1.80
2017-12-13T20:20:41.526Z,1.60
2017-12-13T20:23:09.697Z,2.10
2017-12-13T20:25:37.843Z,1.73
2017-12-13T20:28:06.775Z,1.70
2017-12-13T20:30:34.909Z,1.77
2017-12-13T20:33:03.072Z,1.60
2017-12-13T20:35:31.203Z,1.73
2017-12-13T20:38:00.946Z,2.07
2017-12-13T20:40:29.114Z,1.80
2017-12-13T20:42:58.059Z,1.90
2017-12-13T20:45:26.204Z,1.70
2017-12-13T20:47:54.387Z,1.60
2017-12-13T20:50:23.314Z,2.10
2017-12-13T20:52:51.547Z,1.70
2017-12-13T20:55:19.708Z,1.77
2017-12-13T20:57:47.874Z,1.73
2017-12-13T21:00:16.032Z,2.00
2017-12-13T21:02:44.167Z,1.97
2017-12-13T21:05:12.772Z,2.40
2017-12-13T21:07:40.934Z,3.67
2017-12-13T21:10:09.112Z,1.80
2017-12-13T21:12:37.239Z,1.97
2017-12-13T21:15:06.198Z,2.17
2017-12-13T21:17:34.343Z,2.20
2017-12-13T21:20:03.276Z,1.83
2017-12-13T21:22:32.197Z,1.70
2017-12-13T21:25:00.346Z,1.80
2017-12-13T21:27:28.525Z,1.80
2017-12-13T21:29:56.668Z,1.77
2017-12-13T21:32:24.819Z,2.10
2017-12-13T21:34:53.738Z,1.60
2017-12-13T21:37:21.879Z,2.33
2017-12-13T21:39:51.203Z,1.43
2017-12-13T21:42:19.344Z,2.00
2017-12-13T21:44:48.479Z,2.27
2017-12-13T21:47:16.618Z,1.90
2017-12-13T21:49:44.793Z,1.90
2017-12-13T21:52:13.669Z,1.80
2017-12-13T21:54:41.825Z,1.80
2017-12-13T21:57:10.534Z,2.37
2017-12-13T21:59:39.644Z,1.70
2017-12-13T22:02:07.790Z,2.20
2017-12-13T22:04:35.928Z,1.60
2017-12-13T22:07:04.094Z,1.50
2017-12-13T22:09:32.241Z,1.80
2017-12-13T22:12:00.401Z,1.40
2017-12-13T22:14:28.636Z,2.40
2017-12-13T22:16:56.777Z,1.70
2017-12-13T22:19:24.916Z,2.00
2017-12-13T22:21:53.086Z,2.43
2017-12-13T22:24:21.240Z,1.90
2017-12-13T22:26:50.076Z,2.60
2017-12-13T22:29:18.215Z,2.00
2017-12-13T22:31:46.331Z,2.03
2017-12-13T22:34:15.272Z,1.70
2017-12-13T22:36:43.394Z,1.30
2017-12-13T22:39:11.557Z,1.63
2017-12-13T22:41:39.693Z,1.73
2017-12-13T22:44:08.633Z,2.20
2017-12-13T22:46:37.548Z,1.40
2017-12-13T22:49:05.692Z,1.53
2017-12-13T22:51:34.634Z,1.50
2017-12-13T22:54:02.741Z,1.33
2017-12-13T22:56:30.884Z,1.30
2017-12-13T22:58:59.203Z,1.20
2017-12-13T23:01:27.345Z,1.30
2017-12-13T23:03:55.487Z,1.67
2017-12-13T23:06:23.638Z,1.23
2017-12-13T23:08:51.772Z,1.03
2017-12-13T23:11:20.789Z,1.40
2017-12-13T23:13:49.701Z,1.57
2017-12-13T23:16:18.605Z,1.10
2017-12-13T23:18:47.513Z,1.10
2017-12-13T23:21:15.681Z,1.50
2017-12-13T23:23:43.823Z,1.30
2017-12-13T23:26:11.959Z,1.30
2017-12-13T23:28:40.877Z,1.20
2017-12-13T23:31:09.016Z,1.37
2017-12-13T23:33:37.179Z,1.07
2017-12-13T23:36:05.290Z,1.50
2017-12-13T23:38:34.218Z,1.20
2017-12-13T23:41:02.360Z,1.40
2017-12-13T23:43:30.935Z,1.60
2017-12-13T23:45:59.057Z,1.20
2017-12-13T23:48:27.203Z,1.30
2017-12-13T23:50:55.330Z,1.70
2017-12-13T23:53:23.492Z,1.37
2017-12-13T23:55:51.660Z,1.20
2017-12-13T23:58:19.795Z,1.30
